sensor_id;sensor_type;location;lat;lon;timestamp;P1;durP1;ratioP1;P2;durP2;ratioP2
76903;SDS011;65865;51.698;-0.292;2023-03-14T00:00:58;4.45;;;1.00;;
76903;SDS011;65865;51.698;-0.292;2023-03-14T00:03:24;4.95;;;1.10;;
76903;SDS011;65865;51.698;-0.292;2023-03-14T00:05:50;5.28;;;1.23;;
76903;SDS011;65865;51.698;-0.292;2023-03-14T00:08:16;3.33;;;0.80;;
76903;SDS011;65865;51.698;-0.292;2023-03-14T00:10:43;5.57;;;1.00;;
76903;SDS011;65865;51.698;-0.292;2023-03-14T00:13:09;5.20;;;1.17;;
76903;SDS011;65865;51.698;-0.292;2023-03-14T00:15:35;5.25;;;1.02;;
76903;SDS011;65865;51.698;-0.292;2023-03-14T00:18:01;4.15;;;0.90;;
76903;SDS011;65865;51.698;-0.292;2023-03-14T00:20:27;7.93;;;1.58;;
76903;SDS011;65865;51.698;-0.292;2023-03-14T00:22:53;4.10;;;1.10;;
76903;SDS011;65865;51.698;-0.292;2023-03-14T00:25:19;5.57;;;0.55;;
76903;SDS011;65865;51.698;-0.292;2023-03-14T00:27:45;3.92;;;0.85;;
76903;SDS011;65865;51.698;-0.292;2023-03-14T00:30:11;5.25;;;1.10;;
76903;SDS011;65865;51.698;-0.292;2023-03-14T00:32:37;4.70;;;0.85;;
76903;SDS011;65865;51.698;-0.292;2023-03-14T00:35:04;6.10;;;1.17;;
76903;SDS011;65865;51.698;-0.292;2023-03-14T00:37:30;5.25;;;0.90;;
76903;SDS011;65865;51.698;-0.292;2023-03-14T00:39:56;4.22;;;0.80;;
76903;SDS011;65865;51.698;-0.292;2023-03-14T00:42:23;5.10;;;0.80;;
76903;SDS011;65865;51.698;-0.292;2023-03-14T00:44:49;3.67;;;0.80;;
76903;SDS011;65865;51.698;-0.292;2023-03-14T00:47:15;3.40;;;0.98;;
76903;SDS011;65865;51.698;-0.292;2023-03-14T00:49:41;4.38;;;0.98;;
76903;SDS011;65865;51.698;-0.292;2023-03-14T00:52:08;4.15;;;0.70;;
76903;SDS011;65865;51.698;-0.292;2023-03-14T00:54:34;4.82;;;0.82;;
76903;SDS011;65865;51.698;-0.292;2023-03-14T00:57:00;4.35;;;0.88;;
76903;SDS011;65865;51.698;-0.292;2023-03-14T00:59:26;3.60;;;0.70;;
76903;SDS011;65865;51.698;-0.292;2023-03-14T01:01:52;3.63;;;0.73;;
76903;SDS011;65865;51.698;-0.292;2023-03-14T01:04:18;4.05;;;0.85;;
76903;SDS011;65865;51.698;-0.292;2023-03-14T01:06:44;4.43;;;0.63;;
76903;SDS011;65865;51.698;-0.292;2023-03-14T01:09:10;3.47;;;0.82;;
76903;SDS011;65865;51.698;-0.292;2023-03-14T01:11:36;3.38;;;0.43;;
76903;SDS011;65865;51.698;-0.292;2023-03-14T01:14:03;2.72;;;0.50;;
76903;SDS011;65865;51.698;-0.292;2023-03-14T01:16:30;3.47;;;0.57;;
76903;SDS011;65865;51.698;-0.292;2023-03-14T01:18:56;2.97;;;0.60;;
76903;SDS011;65865;51.698;-0.292;2023-03-14T01:21:24;2.60;;;0.82;;
76903;SDS011;65865;51.698;-0.292;2023-03-14T01:23:51;2.15;;;0.75;;
76903;SDS011;65865;51.698;-0.292;2023-03-14T01:26:18;2.97;;;0.50;;
76903;SDS011;65865;51.698;-0.292;2023-03-14T01:28:45;1.05;;;0.32;;
76903;SDS011;65865;51.698;-0.292;2023-03-14T01:31:11;1.10;;;0.32;;
76903;SDS011;65865;51.698;-0.292;2023-03-14T01:33:38;2.10;;;0.38;;
76903;SDS011;65865;51.698;-0.292;2023-03-14T01:36:04;1.88;;;0.40;;
76903;SDS011;65865;51.698;-0.292;2023-03-14T01:38:31;2.13;;;0.40;;
76903;SDS011;65865;51.698;-0.292;2023-03-14T01:40:58;2.13;;;0.45;;
76903;SDS011;65865;51.698;-0.292;2023-03-14T01:43:24;1.95;;;0.50;;
76903;SDS011;65865;51.698;-0.292;2023-03-14T01:46:12;1.48;;;0.30;;
76903;SDS011;65865;51.698;-0.292;2023-03-14T01:48:40;1.92;;;0.38;;
76903;SDS011;65865;51.698;-0.292;2023-03-14T01:51:09;3.00;;;0.65;;
76903;SDS011;65865;51.698;-0.292;2023-03-14T01:53:36;1.35;;;0.55;;
76903;SDS011;65865;51.698;-0.292;2023-03-14T01:56:04;2.10;;;0.40;;
76903;SDS011;65865;51.698;-0.292;2023-03-14T01:58:30;3.35;;;0.35;;
76903;SDS011;65865;51.698;-0.292;2023-03-14T02:00:59;2.38;;;0.30;;
76903;SDS011;65865;51.698;-0.292;2023-03-14T02:03:27;1.33;;;0.22;;
76903;SDS011;65865;51.698;-0.292;2023-03-14T02:05:54;2.25;;;0.40;;
76903;SDS011;65865;51.698;-0.292;2023-03-14T02:08:21;1.40;;;0.32;;
76903;SDS011;65865;51.698;-0.292;2023-03-14T02:10:48;1.00;;;0.30;;
76903;SDS011;65865;51.698;-0.292;2023-03-14T02:13:15;1.73;;;0.43;;
76903;SDS011;65865;51.698;-0.292;2023-03-14T02:15:41;1.45;;;0.50;;
76903;SDS011;65865;51.698;-0.292;2023-03-14T02:18:08;2.30;;;0.50;;
76903;SDS011;65865;51.698;-0.292;2023-03-14T02:23:06;1.80;;;0.38;;
76903;SDS011;65865;51.698;-0.292;2023-03-14T02:28:05;1.88;;;0.45;;
76903;SDS011;65865;51.698;-0.292;2023-03-14T02:30:31;1.63;;;0.50;;
76903;SDS011;65865;51.698;-0.292;2023-03-14T02:33:03;2.55;;;0.40;;
76903;SDS011;65865;51.698;-0.292;2023-03-14T02:35:31;1.05;;;0.60;;
76903;SDS011;65865;51.698;-0.292;2023-03-14T02:40:24;0.85;;;0.30;;
76903;SDS011;65865;51.698;-0.292;2023-03-14T02:42:50;1.67;;;0.50;;
76903;SDS011;65865;51.698;-0.292;2023-03-14T02:47:43;0.95;;;0.20;;
76903;SDS011;65865;51.698;-0.292;2023-03-14T02:50:13;0.90;;;0.32;;
76903;SDS011;65865;51.698;-0.292;2023-03-14T02:52:40;2.13;;;0.50;;
76903;SDS011;65865;51.698;-0.292;2023-03-14T02:55:06;1.52;;;0.30;;
76903;SDS011;65865;51.698;-0.292;2023-03-14T02:57:32;1.85;;;0.20;;
76903;SDS011;65865;51.698;-0.292;2023-03-14T02:59:58;2.85;;;0.30;;
76903;SDS011;65865;51.698;-0.292;2023-03-14T03:02:25;1.40;;;0.30;;
76903;SDS011;65865;51.698;-0.292;2023-03-14T03:04:51;1.35;;;0.45;;
76903;SDS011;65865;51.698;-0.292;2023-03-14T03:07:17;2.65;;;0.40;;
76903;SDS011;65865;51.698;-0.292;2023-03-14T03:09:44;1.20;;;0.35;;
76903;SDS011;65865;51.698;-0.292;2023-03-14T03:12:10;2.78;;;0.40;;
76903;SDS011;65865;51.698;-0.292;2023-03-14T03:14:36;1.67;;;0.43;;
76903;SDS011;65865;51.698;-0.292;2023-03-14T03:17:03;1.50;;;0.30;;
76903;SDS011;65865;51.698;-0.292;2023-03-14T03:19:30;1.52;;;0.32;;
76903;SDS011;65865;51.698;-0.292;2023-03-14T03:21:56;1.80;;;0.45;;
76903;SDS011;65865;51.698;-0.292;2023-03-14T03:24:23;1.85;;;0.32;;
76903;SDS011;65865;51.698;-0.292;2023-03-14T03:26:49;1.45;;;0.47;;
76903;SDS011;65865;51.698;-0.292;2023-03-14T03:29:15;0.90;;;0.40;;
76903;SDS011;65865;51.698;-0.292;2023-03-14T03:31:41;1.52;;;0.47;;
76903;SDS011;65865;51.698;-0.292;2023-03-14T03:34:07;1.55;;;0.32;;
76903;SDS011;65865;51.698;-0.292;2023-03-14T03:36:33;0.98;;;0.10;;
76903;SDS011;65865;51.698;-0.292;2023-03-14T03:38:59;1.13;;;0.22;;
76903;SDS011;65865;51.698;-0.292;2023-03-14T03:41:25;1.23;;;0.28;;
76903;SDS011;65865;51.698;-0.292;2023-03-14T03:43:51;2.40;;;0.40;;
76903;SDS011;65865;51.698;-0.292;2023-03-14T03:46:19;0.95;;;0.30;;
76903;SDS011;65865;51.698;-0.292;2023-03-14T03:48:45;1.42;;;0.30;;
76903;SDS011;65865;51.698;-0.292;2023-03-14T03:51:14;1.15;;;0.20;;
76903;SDS011;65865;51.698;-0.292;2023-03-14T03:53:41;1.20;;;0.20;;
76903;SDS011;65865;51.698;-0.292;2023-03-14T03:56:07;1.02;;;0.10;;
76903;SDS011;65865;51.698;-0.292;2023-03-14T03:58:33;1.70;;;0.28;;
76903;SDS011;65865;51.698;-0.292;2023-03-14T04:00:59;1.58;;;0.30;;
76903;SDS011;65865;51.698;-0.292;2023-03-14T04:03:26;1.23;;;0.30;;
76903;SDS011;65865;51.698;-0.292;2023-03-14T04:06:02;1.77;;;0.20;;
76903;SDS011;65865;51.698;-0.292;2023-03-14T04:08:28;0.63;;;0.22;;
76903;SDS011;65865;51.698;-0.292;2023-03-14T04:10:57;1.98;;;0.50;;
76903;SDS011;65865;51.698;-0.292;2023-03-14T04:13:24;1.13;;;0.20;;
76903;SDS011;65865;51.698;-0.292;2023-03-14T04:15:50;1.27;;;0.30;;
76903;SDS011;65865;51.698;-0.292;2023-03-14T04:18:17;1.15;;;0.22;;
76903;SDS011;65865;51.698;-0.292;2023-03-14T04:20:43;0.95;;;0.10;;
76903;SDS011;65865;51.698;-0.292;2023-03-14T04:23:09;0.98;;;0.32;;
76903;SDS011;65865;51.698;-0.292;2023-03-14T04:25:35;1.08;;;0.20;;
76903;SDS011;65865;51.698;-0.292;2023-03-14T04:28:02;1.73;;;0.20;;
76903;SDS011;65865;51.698;-0.292;2023-03-14T04:30:29;1.23;;;0.73;;
76903;SDS011;65865;51.698;-0.292;2023-03-14T04:32:55;1.58;;;0.25;;
76903;SDS011;65865;51.698;-0.292;2023-03-14T04:35:21;1.58;;;0.30;;
76903;SDS011;65865;51.698;-0.292;2023-03-14T04:37:47;1.17;;;0.30;;
76903;SDS011;65865;51.698;-0.292;2023-03-14T04:40:14;2.33;;;0.20;;
76903;SDS011;65865;51.698;-0.292;2023-03-14T04:42:40;0.82;;;0.10;;
76903;SDS011;65865;51.698;-0.292;2023-03-14T04:45:07;1.27;;;0.22;;
76903;SDS011;65865;51.698;-0.292;2023-03-14T04:47:33;0.57;;;0.20;;
76903;SDS011;65865;51.698;-0.292;2023-03-14T04:50:00;1.83;;;0.30;;
76903;SDS011;65865;51.698;-0.292;2023-03-14T04:52:26;1.02;;;0.28;;
76903;SDS011;65865;51.698;-0.292;2023-03-14T04:54:52;1.25;;;0.20;;
76903;SDS011;65865;51.698;-0.292;2023-03-14T04:57:18;0.95;;;0.22;;
76903;SDS011;65865;51.698;-0.292;2023-03-14T04:59:44;1.67;;;0.32;;
76903;SDS011;65865;51.698;-0.292;2023-03-14T05:02:10;1.48;;;0.25;;
76903;SDS011;65865;51.698;-0.292;2023-03-14T05:04:36;1.40;;;0.38;;
76903;SDS011;65865;51.698;-0.292;2023-03-14T05:07:02;0.70;;;0.20;;
76903;SDS011;65865;51.698;-0.292;2023-03-14T05:09:28;2.50;;;0.20;;
76903;SDS011;65865;51.698;-0.292;2023-03-14T05:11:54;1.02;;;0.28;;
76903;SDS011;65865;51.698;-0.292;2023-03-14T05:14:20;0.40;;;0.20;;
76903;SDS011;65865;51.698;-0.292;2023-03-14T05:16:46;1.45;;;0.20;;
76903;SDS011;65865;51.698;-0.292;2023-03-14T05:19:12;1.33;;;0.20;;
76903;SDS011;65865;51.698;-0.292;2023-03-14T05:21:38;0.68;;;0.20;;
76903;SDS011;65865;51.698;-0.292;2023-03-14T05:24:04;1.60;;;0.30;;
76903;SDS011;65865;51.698;-0.292;2023-03-14T05:26:30;0.88;;;0.22;;
76903;SDS011;65865;51.698;-0.292;2023-03-14T05:28:56;0.60;;;0.17;;
76903;SDS011;65865;51.698;-0.292;2023-03-14T05:31:22;1.58;;;0.22;;
76903;SDS011;65865;51.698;-0.292;2023-03-14T05:33:48;1.33;;;0.10;;
76903;SDS011;65865;51.698;-0.292;2023-03-14T05:36:14;1.90;;;0.13;;
76903;SDS011;65865;51.698;-0.292;2023-03-14T05:38:40;1.15;;;0.30;;
76903;SDS011;65865;51.698;-0.292;2023-03-14T05:41:06;2.55;;;0.40;;
76903;SDS011;65865;51.698;-0.292;2023-03-14T05:43:32;1.05;;;0.20;;
76903;SDS011;65865;51.698;-0.292;2023-03-14T05:45:58;1.17;;;0.20;;
76903;SDS011;65865;51.698;-0.292;2023-03-14T05:48:24;1.30;;;0.20;;
76903;SDS011;65865;51.698;-0.292;2023-03-14T05:50:54;1.05;;;0.20;;
76903;SDS011;65865;51.698;-0.292;2023-03-14T05:53:20;1.13;;;0.40;;
76903;SDS011;65865;51.698;-0.292;2023-03-14T05:55:46;0.55;;;0.28;;
76903;SDS011;65865;51.698;-0.292;2023-03-14T05:58:12;3.05;;;0.40;;
76903;SDS011;65865;51.698;-0.292;2023-03-14T06:00:39;0.98;;;0.10;;
76903;SDS011;65865;51.698;-0.292;2023-03-14T06:03:05;1.55;;;0.20;;
76903;SDS011;65865;51.698;-0.292;2023-03-14T06:05:31;1.13;;;0.22;;
76903;SDS011;65865;51.698;-0.292;2023-03-14T06:07:56;2.17;;;0.30;;
76903;SDS011;65865;51.698;-0.292;2023-03-14T06:10:22;1.52;;;0.25;;
76903;SDS011;65865;51.698;-0.292;2023-03-14T06:12:48;2.30;;;0.30;;
76903;SDS011;65865;51.698;-0.292;2023-03-14T06:15:14;1.67;;;0.43;;
76903;SDS011;65865;51.698;-0.292;2023-03-14T06:17:40;2.67;;;0.50;;
76903;SDS011;65865;51.698;-0.292;2023-03-14T06:20:07;1.15;;;0.32;;
76903;SDS011;65865;51.698;-0.292;2023-03-14T06:22:33;0.55;;;0.10;;
76903;SDS011;65865;51.698;-0.292;2023-03-14T06:24:59;0.77;;;0.28;;
76903;SDS011;65865;51.698;-0.292;2023-03-14T06:27:25;1.65;;;0.40;;
76903;SDS011;65865;51.698;-0.292;2023-03-14T06:29:51;1.00;;;0.30;;
76903;SDS011;65865;51.698;-0.292;2023-03-14T06:32:17;0.95;;;0.20;;
76903;SDS011;65865;51.698;-0.292;2023-03-14T06:34:44;1.33;;;0.20;;
76903;SDS011;65865;51.698;-0.292;2023-03-14T06:37:10;2.33;;;0.20;;
76903;SDS011;65865;51.698;-0.292;2023-03-14T06:39:36;1.10;;;0.30;;
76903;SDS011;65865;51.698;-0.292;2023-03-14T06:42:03;2.13;;;0.40;;
76903;SDS011;65865;51.698;-0.292;2023-03-14T06:44:29;1.33;;;0.22;;
76903;SDS011;65865;51.698;-0.292;2023-03-14T06:46:55;1.70;;;0.20;;
76903;SDS011;65865;51.698;-0.292;2023-03-14T06:49:21;2.03;;;0.20;;
76903;SDS011;65865;51.698;-0.292;2023-03-14T06:51:47;1.30;;;0.32;;
76903;SDS011;65865;51.698;-0.292;2023-03-14T06:54:13;0.63;;;0.20;;
76903;SDS011;65865;51.698;-0.292;2023-03-14T06:56:39;1.45;;;0.30;;
76903;SDS011;65865;51.698;-0.292;2023-03-14T06:59:06;1.60;;;0.20;;
76903;SDS011;65865;51.698;-0.292;2023-03-14T07:01:32;2.13;;;0.22;;
76903;SDS011;65865;51.698;-0.292;2023-03-14T07:03:59;0.77;;;0.10;;
76903;SDS011;65865;51.698;-0.292;2023-03-14T07:06:25;2.13;;;0.30;;
76903;SDS011;65865;51.698;-0.292;2023-03-14T07:08:54;1.65;;;0.52;;
76903;SDS011;65865;51.698;-0.292;2023-03-14T07:11:20;1.23;;;0.22;;
76903;SDS011;65865;51.698;-0.292;2023-03-14T07:13:46;1.50;;;0.20;;
76903;SDS011;65865;51.698;-0.292;2023-03-14T07:16:12;1.90;;;0.25;;
76903;SDS011;65865;51.698;-0.292;2023-03-14T07:18:38;1.33;;;0.10;;
76903;SDS011;65865;51.698;-0.292;2023-03-14T07:21:08;1.83;;;0.50;;
76903;SDS011;65865;51.698;-0.292;2023-03-14T07:23:34;1.50;;;0.30;;
76903;SDS011;65865;51.698;-0.292;2023-03-14T07:26:00;2.03;;;0.30;;
76903;SDS011;65865;51.698;-0.292;2023-03-14T07:28:26;0.63;;;0.20;;
76903;SDS011;65865;51.698;-0.292;2023-03-14T07:30:53;1.20;;;0.30;;
76903;SDS011;65865;51.698;-0.292;2023-03-14T07:33:19;1.02;;;0.20;;
76903;SDS011;65865;51.698;-0.292;2023-03-14T07:35:49;2.03;;;0.30;;
76903;SDS011;65865;51.698;-0.292;2023-03-14T07:38:15;1.55;;;0.20;;
76903;SDS011;65865;51.698;-0.292;2023-03-14T07:40:41;6.88;;;0.38;;
76903;SDS011;65865;51.698;-0.292;2023-03-14T07:43:07;1.38;;;0.10;;
76903;SDS011;65865;51.698;-0.292;2023-03-14T07:45:33;1.42;;;0.30;;
76903;SDS011;65865;51.698;-0.292;2023-03-14T07:47:59;2.80;;;0.43;;
76903;SDS011;65865;51.698;-0.292;2023-03-14T07:50:27;1.17;;;0.20;;
76903;SDS011;65865;51.698;-0.292;2023-03-14T07:52:53;1.35;;;0.13;;
76903;SDS011;65865;51.698;-0.292;2023-03-14T07:55:19;2.00;;;0.32;;
76903;SDS011;65865;51.698;-0.292;2023-03-14T07:57:45;1.55;;;0.45;;
76903;SDS011;65865;51.698;-0.292;2023-03-14T08:00:11;1.92;;;0.43;;
76903;SDS011;65865;51.698;-0.292;2023-03-14T08:02:39;1.10;;;0.20;;
76903;SDS011;65865;51.698;-0.292;2023-03-14T08:05:05;1.45;;;0.20;;
76903;SDS011;65865;51.698;-0.292;2023-03-14T08:07:31;1.05;;;0.45;;
76903;SDS011;65865;51.698;-0.292;2023-03-14T08:09:57;2.47;;;0.63;;
76903;SDS011;65865;51.698;-0.292;2023-03-14T08:12:23;1.17;;;0.20;;
76903;SDS011;65865;51.698;-0.292;2023-03-14T08:14:49;1.00;;;0.30;;
76903;SDS011;65865;51.698;-0.292;2023-03-14T08:17:15;0.93;;;0.20;;
76903;SDS011;65865;51.698;-0.292;2023-03-14T08:19:41;1.60;;;0.30;;
76903;SDS011;65865;51.698;-0.292;2023-03-14T08:22:07;0.57;;;0.10;;
76903;SDS011;65865;51.698;-0.292;2023-03-14T08:24:34;0.80;;;0.30;;
76903;SDS011;65865;51.698;-0.292;2023-03-14T08:27:00;0.85;;;0.20;;
76903;SDS011;65865;51.698;-0.292;2023-03-14T08:29:26;1.48;;;0.10;;
76903;SDS011;65865;51.698;-0.292;2023-03-14T08:31:52;1.15;;;0.20;;
76903;SDS011;65865;51.698;-0.292;2023-03-14T08:34:19;1.23;;;0.15;;
76903;SDS011;65865;51.698;-0.292;2023-03-14T08:36:45;0.80;;;0.28;;
76903;SDS011;65865;51.698;-0.292;2023-03-14T08:39:11;0.45;;;0.10;;
76903;SDS011;65865;51.698;-0.292;2023-03-14T08:41:37;1.23;;;0.32;;
76903;SDS011;65865;51.698;-0.292;2023-03-14T08:44:09;0.25;;;0.13;;
76903;SDS011;65865;51.698;-0.292;2023-03-14T08:46:36;0.50;;;0.10;;
76903;SDS011;65865;51.698;-0.292;2023-03-14T08:49:02;1.02;;;0.20;;
76903;SDS011;65865;51.698;-0.292;2023-03-14T08:51:28;1.17;;;0.30;;
76903;SDS011;65865;51.698;-0.292;2023-03-14T08:53:54;0.82;;;0.28;;
76903;SDS011;65865;51.698;-0.292;2023-03-14T08:56:20;0.55;;;0.10;;
76903;SDS011;65865;51.698;-0.292;2023-03-14T08:58:46;0.68;;;0.20;;
76903;SDS011;65865;51.698;-0.292;2023-03-14T09:01:12;2.47;;;0.20;;
76903;SDS011;65865;51.698;-0.292;2023-03-14T09:03:38;0.90;;;0.20;;
76903;SDS011;65865;51.698;-0.292;2023-03-14T09:06:07;2.17;;;0.20;;
76903;SDS011;65865;51.698;-0.292;2023-03-14T09:08:33;1.83;;;0.47;;
76903;SDS011;65865;51.698;-0.292;2023-03-14T09:11:00;2.15;;;0.40;;
76903;SDS011;65865;51.698;-0.292;2023-03-14T09:13:26;1.58;;;0.40;;
76903;SDS011;65865;51.698;-0.292;2023-03-14T09:15:52;1.83;;;0.40;;
76903;SDS011;65865;51.698;-0.292;2023-03-14T09:18:18;1.80;;;0.50;;
76903;SDS011;65865;51.698;-0.292;2023-03-14T09:20:44;1.33;;;0.40;;
76903;SDS011;65865;51.698;-0.292;2023-03-14T09:23:10;1.42;;;0.40;;
76903;SDS011;65865;51.698;-0.292;2023-03-14T09:25:37;2.38;;;0.52;;
76903;SDS011;65865;51.698;-0.292;2023-03-14T09:28:03;2.15;;;0.25;;
76903;SDS011;65865;51.698;-0.292;2023-03-14T09:30:29;1.50;;;0.40;;
76903;SDS011;65865;51.698;-0.292;2023-03-14T09:32:55;2.33;;;0.32;;
76903;SDS011;65865;51.698;-0.292;2023-03-14T09:35:22;1.40;;;0.60;;
76903;SDS011;65865;51.698;-0.292;2023-03-14T09:37:48;2.58;;;0.40;;
76903;SDS011;65865;51.698;-0.292;2023-03-14T09:40:15;2.30;;;0.38;;
76903;SDS011;65865;51.698;-0.292;2023-03-14T09:42:41;3.05;;;0.30;;
76903;SDS011;65865;51.698;-0.292;2023-03-14T09:45:12;2.42;;;0.50;;
76903;SDS011;65865;51.698;-0.292;2023-03-14T09:47:41;3.50;;;0.68;;
76903;SDS011;65865;51.698;-0.292;2023-03-14T09:50:14;3.50;;;0.20;;
76903;SDS011;65865;51.698;-0.292;2023-03-14T09:52:41;2.25;;;0.30;;
76903;SDS011;65865;51.698;-0.292;2023-03-14T09:57:38;3.25;;;0.50;;
76903;SDS011;65865;51.698;-0.292;2023-03-14T10:00:06;3.00;;;0.85;;
76903;SDS011;65865;51.698;-0.292;2023-03-14T10:05:07;2.95;;;0.45;;
76903;SDS011;65865;51.698;-0.292;2023-03-14T10:07:34;3.80;;;0.65;;
76903;SDS011;65865;51.698;-0.292;2023-03-14T10:10:00;2.20;;;0.32;;
76903;SDS011;65865;51.698;-0.292;2023-03-14T10:12:33;3.15;;;0.60;;
76903;SDS011;65865;51.698;-0.292;2023-03-14T10:15:02;10.77;;;0.73;;
76903;SDS011;65865;51.698;-0.292;2023-03-14T10:17:29;2.80;;;0.60;;
76903;SDS011;65865;51.698;-0.292;2023-03-14T10:19:56;3.60;;;0.70;;
76903;SDS011;65865;51.698;-0.292;2023-03-14T10:22:27;3.03;;;0.40;;
76903;SDS011;65865;51.698;-0.292;2023-03-14T10:24:56;4.68;;;0.43;;
76903;SDS011;65865;51.698;-0.292;2023-03-14T10:27:28;4.28;;;0.50;;
76903;SDS011;65865;51.698;-0.292;2023-03-14T10:30:00;4.00;;;0.63;;
76903;SDS011;65865;51.698;-0.292;2023-03-14T10:32:33;3.13;;;0.68;;
76903;SDS011;65865;51.698;-0.292;2023-03-14T10:37:48;4.38;;;0.77;;
76903;SDS011;65865;51.698;-0.292;2023-03-14T10:40:24;6.45;;;0.70;;
76903;SDS011;65865;51.698;-0.292;2023-03-14T10:42:52;6.70;;;0.75;;
76903;SDS011;65865;51.698;-0.292;2023-03-14T10:50:50;9.38;;;1.20;;
76903;SDS011;65865;51.698;-0.292;2023-03-14T10:53:18;5.60;;;1.00;;
76903;SDS011;65865;51.698;-0.292;2023-03-14T10:55:45;5.07;;;0.93;;
76903;SDS011;65865;51.698;-0.292;2023-03-14T11:03:34;4.80;;;0.90;;
76903;SDS011;65865;51.698;-0.292;2023-03-14T11:08:35;5.10;;;1.10;;
76903;SDS011;65865;51.698;-0.292;2023-03-14T11:14:08;4.50;;;0.93;;
76903;SDS011;65865;51.698;-0.292;2023-03-14T11:27:05;5.32;;;0.68;;
76903;SDS011;65865;51.698;-0.292;2023-03-14T11:29:39;4.97;;;0.70;;
76903;SDS011;65865;51.698;-0.292;2023-03-14T11:32:17;3.65;;;0.65;;
76903;SDS011;65865;51.698;-0.292;2023-03-14T11:34:49;4.13;;;0.50;;
76903;SDS011;65865;51.698;-0.292;2023-03-14T11:37:18;4.22;;;0.98;;
76903;SDS011;65865;51.698;-0.292;2023-03-14T11:39:51;4.20;;;0.85;;
76903;SDS011;65865;51.698;-0.292;2023-03-14T11:42:19;5.63;;;0.70;;
76903;SDS011;65865;51.698;-0.292;2023-03-14T11:44:48;6.35;;;0.85;;
76903;SDS011;65865;51.698;-0.292;2023-03-14T11:47:21;5.55;;;1.23;;
76903;SDS011;65865;51.698;-0.292;2023-03-14T11:52:29;4.25;;;0.60;;
76903;SDS011;65865;51.698;-0.292;2023-03-14T11:54:58;4.85;;;0.65;;
76903;SDS011;65865;51.698;-0.292;2023-03-14T11:57:25;3.20;;;0.85;;
76903;SDS011;65865;51.698;-0.292;2023-03-14T12:07:40;2.70;;;0.52;;
76903;SDS011;65865;51.698;-0.292;2023-03-14T12:10:14;4.45;;;0.88;;
76903;SDS011;65865;51.698;-0.292;2023-03-14T12:15:17;4.53;;;0.52;;
76903;SDS011;65865;51.698;-0.292;2023-03-14T12:17:44;4.68;;;0.70;;
76903;SDS011;65865;51.698;-0.292;2023-03-14T12:22:41;4.53;;;0.52;;
76903;SDS011;65865;51.698;-0.292;2023-03-14T12:27:45;3.28;;;0.63;;
76903;SDS011;65865;51.698;-0.292;2023-03-14T12:33:10;2.47;;;0.52;;
76903;SDS011;65865;51.698;-0.292;2023-03-14T12:35:39;3.63;;;0.40;;
76903;SDS011;65865;51.698;-0.292;2023-03-14T12:38:07;2.65;;;0.50;;
76903;SDS011;65865;51.698;-0.292;2023-03-14T12:40:37;3.30;;;0.75;;
76903;SDS011;65865;51.698;-0.292;2023-03-14T12:43:10;3.05;;;0.50;;
76903;SDS011;65865;51.698;-0.292;2023-03-14T12:51:28;2.97;;;0.30;;
76903;SDS011;65865;51.698;-0.292;2023-03-14T13:01:37;2.50;;;0.55;;
76903;SDS011;65865;51.698;-0.292;2023-03-14T13:04:10;2.63;;;0.40;;
76903;SDS011;65865;51.698;-0.292;2023-03-14T13:11:55;2.83;;;0.38;;
76903;SDS011;65865;51.698;-0.292;2023-03-14T13:14:22;1.35;;;0.40;;
76903;SDS011;65865;51.698;-0.292;2023-03-14T13:16:48;1.48;;;0.40;;
76903;SDS011;65865;51.698;-0.292;2023-03-14T13:19:19;2.22;;;0.32;;
76903;SDS011;65865;51.698;-0.292;2023-03-14T13:21:47;3.30;;;0.35;;
76903;SDS011;65865;51.698;-0.292;2023-03-14T13:24:47;3.03;;;0.65;;
76903;SDS011;65865;51.698;-0.292;2023-03-14T13:29:32;1.30;;;0.22;;
76903;SDS011;65865;51.698;-0.292;2023-03-14T13:31:59;1.95;;;0.30;;
76903;SDS011;65865;51.698;-0.292;2023-03-14T13:34:35;2.65;;;0.50;;
76903;SDS011;65865;51.698;-0.292;2023-03-14T13:37:01;1.23;;;0.20;;
76903;SDS011;65865;51.698;-0.292;2023-03-14T13:39:28;2.65;;;0.32;;
76903;SDS011;65865;51.698;-0.292;2023-03-14T13:42:00;2.28;;;0.30;;
76903;SDS011;65865;51.698;-0.292;2023-03-14T13:44:29;3.00;;;0.60;;
76903;SDS011;65865;51.698;-0.292;2023-03-14T13:47:00;1.60;;;0.50;;
76903;SDS011;65865;51.698;-0.292;2023-03-14T13:49:26;3.08;;;0.68;;
76903;SDS011;65865;51.698;-0.292;2023-03-14T13:51:56;3.70;;;0.55;;
76903;SDS011;65865;51.698;-0.292;2023-03-14T13:54:22;2.05;;;0.43;;
76903;SDS011;65865;51.698;-0.292;2023-03-14T13:56:48;2.03;;;0.50;;
76903;SDS011;65865;51.698;-0.292;2023-03-14T13:59:25;0.85;;;0.30;;
76903;SDS011;65865;51.698;-0.292;2023-03-14T14:01:52;1.25;;;0.20;;
76903;SDS011;65865;51.698;-0.292;2023-03-14T14:04:19;1.60;;;0.40;;
76903;SDS011;65865;51.698;-0.292;2023-03-14T14:06:54;1.77;;;0.50;;
76903;SDS011;65865;51.698;-0.292;2023-03-14T14:09:29;1.98;;;0.30;;
76903;SDS011;65865;51.698;-0.292;2023-03-14T14:14:36;2.20;;;0.32;;
76903;SDS011;65865;51.698;-0.292;2023-03-14T14:17:15;3.08;;;0.30;;
76903;SDS011;65865;51.698;-0.292;2023-03-14T14:19:41;1.23;;;0.28;;
76903;SDS011;65865;51.698;-0.292;2023-03-14T14:22:09;1.88;;;0.35;;
76903;SDS011;65865;51.698;-0.292;2023-03-14T14:24:35;1.90;;;0.40;;
76903;SDS011;65865;51.698;-0.292;2023-03-14T14:27:11;1.23;;;0.38;;
76903;SDS011;65865;51.698;-0.292;2023-03-14T14:29:39;1.55;;;0.30;;
76903;SDS011;65865;51.698;-0.292;2023-03-14T14:32:12;1.92;;;0.40;;
76903;SDS011;65865;51.698;-0.292;2023-03-14T14:34:40;1.95;;;0.40;;
76903;SDS011;65865;51.698;-0.292;2023-03-14T14:39:39;1.60;;;0.20;;
76903;SDS011;65865;51.698;-0.292;2023-03-14T14:44:41;2.70;;;0.52;;
76903;SDS011;65865;51.698;-0.292;2023-03-14T14:47:12;1.88;;;0.50;;
76903;SDS011;65865;51.698;-0.292;2023-03-14T14:49:38;1.63;;;0.35;;
76903;SDS011;65865;51.698;-0.292;2023-03-14T14:52:08;2.13;;;0.43;;
76903;SDS011;65865;51.698;-0.292;2023-03-14T14:54:42;2.20;;;0.30;;
76903;SDS011;65865;51.698;-0.292;2023-03-14T14:57:19;1.40;;;0.20;;
76903;SDS011;65865;51.698;-0.292;2023-03-14T14:59:47;1.52;;;0.20;;
76903;SDS011;65865;51.698;-0.292;2023-03-14T15:02:25;2.25;;;0.43;;
76903;SDS011;65865;51.698;-0.292;2023-03-14T15:04:53;0.60;;;0.20;;
76903;SDS011;65865;51.698;-0.292;2023-03-14T15:07:19;1.55;;;0.32;;
76903;SDS011;65865;51.698;-0.292;2023-03-14T15:09:45;2.50;;;0.28;;
76903;SDS011;65865;51.698;-0.292;2023-03-14T15:12:11;0.93;;;0.30;;
76903;SDS011;65865;51.698;-0.292;2023-03-14T15:14:37;1.88;;;0.30;;
76903;SDS011;65865;51.698;-0.292;2023-03-14T15:17:03;1.90;;;0.32;;
76903;SDS011;65865;51.698;-0.292;2023-03-14T15:19:29;1.65;;;0.57;;
76903;SDS011;65865;51.698;-0.292;2023-03-14T15:21:57;1.75;;;0.20;;
76903;SDS011;65865;51.698;-0.292;2023-03-14T15:24:24;1.45;;;0.22;;
76903;SDS011;65865;51.698;-0.292;2023-03-14T15:26:50;3.42;;;0.80;;
76903;SDS011;65865;51.698;-0.292;2023-03-14T15:29:16;3.17;;;0.43;;
76903;SDS011;65865;51.698;-0.292;2023-03-14T15:31:42;3.20;;;0.63;;
76903;SDS011;65865;51.698;-0.292;2023-03-14T15:34:09;3.67;;;0.50;;
76903;SDS011;65865;51.698;-0.292;2023-03-14T15:36:35;5.25;;;0.55;;
76903;SDS011;65865;51.698;-0.292;2023-03-14T15:39:02;3.17;;;0.40;;
76903;SDS011;65865;51.698;-0.292;2023-03-14T15:41:29;3.67;;;0.63;;
76903;SDS011;65865;51.698;-0.292;2023-03-14T15:43:57;4.05;;;0.68;;
76903;SDS011;65865;51.698;-0.292;2023-03-14T15:46:24;3.17;;;0.63;;
76903;SDS011;65865;51.698;-0.292;2023-03-14T15:48:50;8.55;;;0.77;;
76903;SDS011;65865;51.698;-0.292;2023-03-14T15:51:18;3.25;;;0.45;;
76903;SDS011;65865;51.698;-0.292;2023-03-14T15:53:47;5.63;;;0.68;;
76903;SDS011;65865;51.698;-0.292;2023-03-14T15:56:14;3.08;;;0.43;;
76903;SDS011;65865;51.698;-0.292;2023-03-14T15:58:41;3.38;;;0.32;;
76903;SDS011;65865;51.698;-0.292;2023-03-14T16:01:11;2.95;;;0.70;;
76903;SDS011;65865;51.698;-0.292;2023-03-14T16:03:38;5.00;;;0.50;;
76903;SDS011;65865;51.698;-0.292;2023-03-14T16:06:04;3.38;;;0.70;;
76903;SDS011;65865;51.698;-0.292;2023-03-14T16:08:30;2.85;;;0.40;;